Time;durP1;ratioP1;P1;durP2;ratioP2;P2;SDS_P1;SDS_P2;PMS_P1;PMS_P2;Temp;Humidity;BMP_temperature;BMP_pressure;BME280_temperature;BME280_humidity;BME280_pressure;Samples;Min_cycle;Max_cycle;Signal;HPM_P1;HPM_P2
2021/07/31 00:00:29;;;;;;;5.90;3.50;;;;;;;;;;5134362;27;20288;-76
2021/07/31 00:02:56;;;;;;;8.43;3.97;;;;;;;;;;5134044;27;20305;-76
2021/07/31 00:05:23;;;;;;;6.60;3.43;;;;;;;;;;5134133;27;20276;-76
2021/07/31 00:07:50;;;;;;;7.73;3.30;;;;;;;;;;5132400;27;20197;-76
2021/07/31 00:10:17;;;;;;;7.83;3.40;;;;;;;;;;5133968;27;20200;-77
2021/07/31 00:12:44;;;;;;;7.43;3.40;;;;;;;;;;5134086;27;20200;-76
2021/07/31 00:15:13;;;;;;;6.40;3.67;;;;;;;;;;5134044;27;20284;-76
2021/07/31 00:17:40;;;;;;;6.33;3.50;;;;;;;;;;5133934;27;20280;-76
2021/07/31 00:20:09;;;;;;;8.77;3.70;;;;;;;;;;5133785;27;20197;-76
2021/07/31 00:22:36;;;;;;;6.23;3.43;;;;;;;;;;5133038;27;20288;-76
2021/07/31 00:25:03;;;;;;;8.40;3.87;;;;;;;;;;5133742;27;20193;-76
2021/07/31 00:27:30;;;;;;;6.23;3.93;;;;;;;;;;5133497;27;20288;-76
2021/07/31 00:29:57;;;;;;;8.03;3.70;;;;;;;;;;5133586;27;20279;-76
2021/07/31 00:32:26;;;;;;;7.30;3.90;;;;;;;;;;5133774;27;20293;-76
2021/07/31 00:34:53;;;;;;;6.40;3.77;;;;;;;;;;5133030;27;20197;-76
2021/07/31 00:37:20;;;;;;;8.00;3.50;;;;;;;;;;5133406;27;20193;-76
2021/07/31 00:39:48;;;;;;;6.93;3.43;;;;;;;;;;5133120;27;20284;-76
2021/07/31 00:42:15;;;;;;;6.23;3.63;;;;;;;;;;5133450;27;20200;-76
2021/07/31 00:44:42;;;;;;;5.80;3.60;;;;;;;;;;5133023;27;20220;-77
2021/07/31 00:47:09;;;;;;;8.17;4.07;;;;;;;;;;5133387;27;20203;-76
2021/07/31 00:49:38;;;;;;;7.00;3.80;;;;;;;;;;5133013;27;20197;-76
2021/07/31 00:52:06;;;;;;;6.27;3.77;;;;;;;;;;5132964;27;20283;-76
2021/07/31 00:54:34;;;;;;;7.50;3.90;;;;;;;;;;5117704;27;20300;-76
2021/07/31 00:57:01;;;;;;;9.03;3.93;;;;;;;;;;5112516;28;20202;-76
2021/07/31 00:59:29;;;;;;;9.50;4.10;;;;;;;;;;5112485;28;20578;-76
2021/07/31 01:01:56;;;;;;;6.83;3.90;;;;;;;;;;5112443;28;20289;-76
2021/07/31 01:04:24;;;;;;;6.57;3.73;;;;;;;;;;5112041;28;20776;-76
2021/07/31 01:06:52;;;;;;;10.40;4.20;;;;;;;;;;5112563;28;20200;-76
2021/07/31 01:09:19;;;;;;;8.67;3.90;;;;;;;;;;5112599;28;20304;-76
2021/07/31 01:11:46;;;;;;;6.33;3.47;;;;;;;;;;5112811;28;20201;-76
2021/07/31 01:14:14;;;;;;;7.03;3.63;;;;;;;;;;5112821;28;20194;-76
2021/07/31 01:16:41;;;;;;;7.57;3.40;;;;;;;;;;5112549;28;20292;-76
2021/07/31 01:19:08;;;;;;;7.70;3.73;;;;;;;;;;5112386;28;20301;-77
2021/07/31 01:21:38;;;;;;;7.07;3.90;;;;;;;;;;5112638;28;20229;-76
2021/07/31 01:24:06;;;;;;;8.67;3.83;;;;;;;;;;5112372;28;20224;-76
2021/07/31 01:26:36;;;;;;;6.43;3.37;;;;;;;;;;5112408;28;20233;-76
2021/07/31 01:29:04;;;;;;;6.93;3.80;;;;;;;;;;5112604;28;20193;-76
2021/07/31 01:31:31;;;;;;;7.93;3.70;;;;;;;;;;5112353;28;20202;-76
2021/07/31 01:33:58;;;;;;;7.00;3.90;;;;;;;;;;5112387;28;20198;-76
2021/07/31 01:36:25;;;;;;;7.17;3.83;;;;;;;;;;5112253;28;20204;-76
2021/07/31 01:38:54;;;;;;;6.43;3.83;;;;;;;;;;5112229;28;20198;-76
2021/07/31 01:41:22;;;;;;;8.17;3.90;;;;;;;;;;5112186;28;20288;-77
2021/07/31 01:43:49;;;;;;;7.57;3.60;;;;;;;;;;5112354;28;20260;-76
2021/07/31 01:46:16;;;;;;;6.93;3.90;;;;;;;;;;5112237;28;20280;-76
2021/07/31 01:48:43;;;;;;;9.27;4.03;;;;;;;;;;5111780;28;20193;-76
2021/07/31 01:51:10;;;;;;;6.23;3.90;;;;;;;;;;5112340;28;20200;-76
2021/07/31 01:53:38;;;;;;;6.80;3.83;;;;;;;;;;5122433;27;20239;-77
2021/07/31 01:56:06;;;;;;;10.53;4.00;;;;;;;;;;5135423;27;20284;-76
2021/07/31 01:58:34;;;;;;;7.37;4.47;;;;;;;;;;5136827;27;20228;-76
2021/07/31 02:01:02;;;;;;;7.47;3.97;;;;;;;;;;5136843;27;20313;-77
2021/07/31 02:03:29;;;;;;;7.90;4.03;;;;;;;;;;5136094;27;20707;-76
2021/07/31 02:05:57;;;;;;;6.23;4.07;;;;;;;;;;5136222;27;20304;-76
2021/07/31 02:08:24;;;;;;;8.97;4.37;;;;;;;;;;5136194;27;20217;-76
2021/07/31 02:10:51;;;;;;;11.13;4.10;;;;;;;;;;5136143;27;20744;-76
2021/07/31 02:13:20;;;;;;;8.33;4.17;;;;;;;;;;5136283;27;20250;-76
2021/07/31 02:15:47;;;;;;;7.83;4.50;;;;;;;;;;5136306;27;20308;-76
2021/07/31 02:18:15;;;;;;;8.47;4.23;;;;;;;;;;5135934;27;20293;-76
2021/07/31 02:20:42;;;;;;;5.53;3.73;;;;;;;;;;5135765;27;20678;-77
2021/07/31 02:23:09;;;;;;;10.93;4.57;;;;;;;;;;5136290;27;20269;-76
2021/07/31 02:25:37;;;;;;;10.60;4.60;;;;;;;;;;5136025;27;20217;-76
2021/07/31 02:28:04;;;;;;;10.30;4.33;;;;;;;;;;5136295;27;20288;-76
2021/07/31 02:30:33;;;;;;;9.93;4.33;;;;;;;;;;5136024;27;20200;-76
2021/07/31 02:33:00;;;;;;;7.50;4.00;;;;;;;;;;5135536;27;20288;-76
2021/07/31 02:35:33;;;;;;;10.30;4.70;;;;;;;;;;5136185;27;20228;-76
2021/07/31 02:38:00;;;;;;;12.37;4.83;;;;;;;;;;5135524;27;20193;-76
2021/07/31 02:40:27;;;;;;;8.77;4.90;;;;;;;;;;5136025;27;20303;-75
2021/07/31 02:42:54;;;;;;;9.30;4.90;;;;;;;;;;5135675;27;20284;-76
2021/07/31 02:45:22;;;;;;;12.47;4.93;;;;;;;;;;5135478;27;20658;-77
2021/07/31 02:47:50;;;;;;;6.60;4.67;;;;;;;;;;5135438;27;20232;-76
2021/07/31 02:50:17;;;;;;;9.67;4.50;;;;;;;;;;5119071;27;20202;-76
2021/07/31 02:52:45;;;;;;;8.13;5.07;;;;;;;;;;5114793;28;20622;-76
2021/07/31 02:55:12;;;;;;;9.07;4.57;;;;;;;;;;5114790;28;20625;-77
2021/07/31 02:57:39;;;;;;;8.97;4.50;;;;;;;;;;5115017;28;20679;-76
2021/07/31 03:00:07;;;;;;;6.93;3.97;;;;;;;;;;5114421;28;20197;-76
2021/07/31 03:02:34;;;;;;;6.67;4.23;;;;;;;;;;5114295;28;20208;-76
2021/07/31 03:05:03;;;;;;;6.90;4.10;;;;;;;;;;5114430;28;20711;-76
2021/07/31 03:07:32;;;;;;;8.53;4.10;;;;;;;;;;5114645;28;20284;-77
2021/07/31 03:09:59;;;;;;;9.67;4.63;;;;;;;;;;5114151;28;20224;-76
2021/07/31 03:12:26;;;;;;;10.37;5.07;;;;;;;;;;5114496;28;20550;-76
2021/07/31 03:14:54;;;;;;;10.07;5.10;;;;;;;;;;5114124;28;20280;-76
2021/07/31 03:17:21;;;;;;;8.47;4.60;;;;;;;;;;5113160;28;20284;-76
2021/07/31 03:19:49;;;;;;;11.50;5.00;;;;;;;;;;5114256;28;20387;-76
2021/07/31 03:22:18;;;;;;;12.00;5.10;;;;;;;;;;5114453;28;20527;-76
2021/07/31 03:24:45;;;;;;;9.90;4.60;;;;;;;;;;5114417;28;20610;-76
2021/07/31 03:27:12;;;;;;;10.27;4.93;;;;;;;;;;5114115;28;20268;-76
2021/07/31 03:29:40;;;;;;;9.07;5.13;;;;;;;;;;5113909;28;20213;-76
2021/07/31 03:32:07;;;;;;;7.40;3.90;;;;;;;;;;5113981;28;20197;-76
2021/07/31 03:34:35;;;;;;;9.13;4.50;;;;;;;;;;5113842;28;20746;-76
2021/07/31 03:37:02;;;;;;;8.60;4.17;;;;;;;;;;5113740;28;20223;-76
2021/07/31 03:39:30;;;;;;;8.60;4.40;;;;;;;;;;5113943;28;20669;-77
2021/07/31 03:41:58;;;;;;;8.77;4.50;;;;;;;;;;5113917;28;20301;-76
2021/07/31 03:44:25;;;;;;;11.77;4.60;;;;;;;;;;5113662;28;20296;-76
2021/07/31 03:46:52;;;;;;;8.60;4.20;;;;;;;;;;5113727;28;20588;-76
2021/07/31 03:49:21;;;;;;;8.10;4.23;;;;;;;;;;5113969;28;20560;-77
2021/07/31 03:51:48;;;;;;;9.20;4.13;;;;;;;;;;5122408;27;20235;-77
2021/07/31 03:54:16;;;;;;;10.90;4.40;;;;;;;;;;5134044;27;20283;-76
2021/07/31 03:56:44;;;;;;;7.97;3.60;;;;;;;;;;5134324;27;20228;-76
2021/07/31 03:59:12;;;;;;;10.33;4.27;;;;;;;;;;5133593;27;20268;-76
2021/07/31 04:01:39;;;;;;;10.37;4.27;;;;;;;;;;5133847;27;20241;-77
2021/07/31 04:04:06;;;;;;;9.33;4.33;;;;;;;;;;5133530;27;20320;-76
2021/07/31 04:06:33;;;;;;;7.30;4.20;;;;;;;;;;5134124;27;20197;-76
2021/07/31 04:09:00;;;;;;;8.23;3.90;;;;;;;;;;5134098;27;20601;-76
2021/07/31 04:11:27;;;;;;;7.43;4.00;;;;;;;;;;5133720;27;20739;-76
2021/07/31 04:13:56;;;;;;;10.03;4.13;;;;;;;;;;5133749;27;20273;-76
2021/07/31 04:16:23;;;;;;;8.80;4.57;;;;;;;;;;5132761;27;20678;-76
2021/07/31 04:18:50;;;;;;;10.50;4.50;;;;;;;;;;5133869;27;20219;-76
2021/07/31 04:21:17;;;;;;;7.20;4.10;;;;;;;;;;5133737;27;20228;-77
2021/07/31 04:23:45;;;;;;;9.73;4.30;;;;;;;;;;5133417;27;20236;-76
2021/07/31 04:26:13;;;;;;;8.43;4.50;;;;;;;;;;5133317;27;20285;-76
2021/07/31 04:28:40;;;;;;;8.70;4.87;;;;;;;;;;5133567;27;20303;-76
2021/07/31 04:31:10;;;;;;;11.17;4.30;;;;;;;;;;5133403;27;20688;-77
2021/07/31 04:33:37;;;;;;;8.10;4.67;;;;;;;;;;5133659;27;20289;-76
2021/07/31 04:36:04;;;;;;;11.33;4.40;;;;;;;;;;5133542;27;20283;-76
2021/07/31 04:38:32;;;;;;;9.83;4.40;;;;;;;;;;5132176;27;20533;-77
2021/07/31 04:40:59;;;;;;;8.23;4.13;;;;;;;;;;5133248;27;20284;-76
2021/07/31 04:43:26;;;;;;;10.03;4.37;;;;;;;;;;5133210;27;20303;-76
2021/07/31 04:45:53;;;;;;;9.23;4.33;;;;;;;;;;5133168;27;20382;-76
2021/07/31 04:48:22;;;;;;;6.70;4.37;;;;;;;;;;5133151;27;20284;-76
2021/07/31 04:50:55;;;;;;;8.13;4.40;;;;;;;;;;5133028;27;20287;-76
2021/07/31 04:53:23;;;;;;;9.93;4.40;;;;;;;;;;5132861;27;20626;-76
2021/07/31 04:55:50;;;;;;;10.07;4.13;;;;;;;;;;5132835;27;20189;-76
2021/07/31 04:58:17;;;;;;;6.80;4.10;;;;;;;;;;5132825;27;20767;-76
2021/07/31 05:00:46;;;;;;;8.87;4.83;;;;;;;;;;5133053;27;20197;-76
2021/07/31 05:03:14;;;;;;;11.13;4.60;;;;;;;;;;5133176;27;20285;-76
2021/07/31 05:05:42;;;;;;;8.33;4.33;;;;;;;;;;5132906;27;20232;-76
2021/07/31 05:08:09;;;;;;;9.70;4.40;;;;;;;;;;5132776;27;20607;-76
2021/07/31 05:10:40;;;;;;;7.90;4.27;;;;;;;;;;5132586;27;20209;-74
2021/07/31 05:13:07;;;;;;;10.10;4.30;;;;;;;;;;5131728;28;20208;-76
2021/07/31 05:15:36;;;;;;;9.57;4.40;;;;;;;;;;5133256;27;20193;-77
2021/07/31 05:18:03;;;;;;;7.60;4.03;;;;;;;;;;5132917;27;20249;-76
2021/07/31 05:20:30;;;;;;;9.57;4.23;;;;;;;;;;5133061;27;20196;-76
2021/07/31 05:22:59;;;;;;;8.43;4.33;;;;;;;;;;5132859;27;20287;-76
2021/07/31 05:25:26;;;;;;;13.43;4.93;;;;;;;;;;5132281;27;20313;-77
2021/07/31 05:27:53;;;;;;;9.57;4.23;;;;;;;;;;5136610;27;20559;-76
2021/07/31 05:30:21;;;;;;;9.80;4.43;;;;;;;;;;5137213;27;20203;-77
2021/07/31 05:32:48;;;;;;;11.00;4.00;;;;;;;;;;5137020;27;20192;-76
2021/07/31 05:35:15;;;;;;;9.17;4.10;;;;;;;;;;5137102;27;20211;-76
2021/07/31 05:37:42;;;;;;;8.90;4.27;;;;;;;;;;5137034;27;20204;-77
2021/07/31 05:40:11;;;;;;;9.20;4.27;;;;;;;;;;5136679;27;20205;-76
2021/07/31 05:42:39;;;;;;;11.17;3.97;;;;;;;;;;5136668;27;20743;-76
2021/07/31 05:45:07;;;;;;;12.63;4.40;;;;;;;;;;5136602;27;20507;-76
2021/07/31 05:47:34;;;;;;;10.27;4.00;;;;;;;;;;5136592;27;20303;-76
2021/07/31 05:50:04;;;;;;;11.50;4.37;;;;;;;;;;5136674;27;20203;-77
2021/07/31 05:52:33;;;;;;;10.37;4.00;;;;;;;;;;5136578;27;20268;-76
2021/07/31 05:55:00;;;;;;;11.30;3.90;;;;;;;;;;5136374;27;20203;-76
2021/07/31 05:57:29;;;;;;;9.13;3.83;;;;;;;;;;5136190;27;20750;-76
2021/07/31 05:59:56;;;;;;;10.20;3.80;;;;;;;;;;5136509;27;20365;-76
2021/07/31 06:02:24;;;;;;;8.17;4.17;;;;;;;;;;5134971;27;20216;-76
2021/07/31 06:04:51;;;;;;;9.30;3.90;;;;;;;;;;5136303;27;20343;-76
2021/07/31 06:07:18;;;;;;;8.43;3.77;;;;;;;;;;5136060;27;20292;-76
2021/07/31 06:09:50;;;;;;;9.20;3.47;;;;;;;;;;5135901;27;20581;-76
2021/07/31 06:12:17;;;;;;;9.03;3.60;;;;;;;;;;5136064;27;20196;-76
2021/07/31 06:14:46;;;;;;;10.80;3.87;;;;;;;;;;5136125;27;20289;-76
2021/07/31 06:17:13;;;;;;;8.10;3.60;;;;;;;;;;5136219;27;20292;-77
2021/07/31 06:19:40;;;;;;;9.77;3.80;;;;;;;;;;5136340;27;20348;-76
2021/07/31 06:22:08;;;;;;;9.53;4.23;;;;;;;;;;5136249;27;20197;-76
2021/07/31 06:24:35;;;;;;;9.33;3.63;;;;;;;;;;5135410;27;20751;-76
2021/07/31 06:27:02;;;;;;;9.70;3.80;;;;;;;;;;5135807;27;20767;-76
2021/07/31 06:29:29;;;;;;;8.70;3.57;;;;;;;;;;5136035;27;20288;-77
2021/07/31 06:31:58;;;;;;;8.03;3.50;;;;;;;;;;5135996;27;20203;-76
2021/07/31 06:34:26;;;;;;;10.07;3.63;;;;;;;;;;5135760;27;20288;-76
2021/07/31 06:36:53;;;;;;;8.10;3.27;;;;;;;;;;5135851;27;20581;-77
2021/07/31 06:39:20;;;;;;;7.90;3.47;;;;;;;;;;5134400;27;20236;-77
2021/07/31 06:41:47;;;;;;;7.43;3.40;;;;;;;;;;5135574;27;20605;-76
2021/07/31 06:44:14;;;;;;;5.97;3.37;;;;;;;;;;5135522;27;20291;-77
2021/07/31 06:46:42;;;;;;;7.63;3.40;;;;;;;;;;5135513;27;20312;-76
2021/07/31 06:49:10;;;;;;;10.60;3.60;;;;;;;;;;5135634;27;20609;-76
2021/07/31 06:51:39;;;;;;;9.60;3.50;;;;;;;;;;5128004;27;20296;-77
2021/07/31 06:54:06;;;;;;;8.27;3.40;;;;;;;;;;5114175;28;20240;-77
2021/07/31 06:56:35;;;;;;;7.37;3.37;;;;;;;;;;5114704;28;20727;-77
2021/07/31 06:59:02;;;;;;;7.90;3.50;;;;;;;;;;5114972;28;20201;-76
2021/07/31 07:01:29;;;;;;;6.73;3.33;;;;;;;;;;5114438;28;20225;-76
2021/07/31 07:03:56;;;;;;;11.27;3.57;;;;;;;;;;5114734;28;20301;-77
2021/07/31 07:06:25;;;;;;;9.07;3.60;;;;;;;;;;5114401;28;20610;-76
2021/07/31 07:08:52;;;;;;;8.60;3.27;;;;;;;;;;5114242;28;20306;-77
2021/07/31 07:11:19;;;;;;;8.27;3.40;;;;;;;;;;5114546;27;20320;-77
2021/07/31 07:13:47;;;;;;;7.63;3.30;;;;;;;;;;5114633;28;20200;-76
2021/07/31 07:16:14;;;;;;;9.40;3.30;;;;;;;;;;5114318;28;20197;-77
2021/07/31 07:18:41;;;;;;;8.30;3.70;;;;;;;;;;5114346;28;20194;-76
2021/07/31 07:21:09;;;;;;;5.43;3.23;;;;;;;;;;5114226;28;20284;-77
2021/07/31 07:23:37;;;;;;;7.80;3.10;;;;;;;;;;5114072;28;20197;-77
2021/07/31 07:26:08;;;;;;;7.43;3.20;;;;;;;;;;5114047;28;20336;-77
2021/07/31 07:28:36;;;;;;;6.83;2.77;;;;;;;;;;5113962;28;20240;-78
2021/07/31 07:31:03;;;;;;;11.10;3.20;;;;;;;;;;5113989;28;20284;-76
2021/07/31 07:33:31;;;;;;;6.07;2.75;;;;;;;;;;5114050;28;20384;-77
2021/07/31 07:35:58;;;;;;;8.10;3.13;;;;;;;;;;5113805;28;20201;-77
2021/07/31 07:38:26;;;;;;;7.35;2.90;;;;;;;;;;5114221;28;20288;-77
2021/07/31 07:40:54;;;;;;;5.22;3.13;;;;;;;;;;5113847;28;20197;-77
2021/07/31 07:43:21;;;;;;;4.28;2.88;;;;;;;;;;5114202;28;20204;-77
2021/07/31 07:45:48;;;;;;;7.00;2.70;;;;;;;;;;5113806;28;20225;-77
2021/07/31 07:48:16;;;;;;;7.22;3.33;;;;;;;;;;5112694;28;20208;-77
2021/07/31 07:50:43;;;;;;;7.00;2.97;;;;;;;;;;5113239;28;20297;-77
2021/07/31 07:53:10;;;;;;;8.32;3.60;;;;;;;;;;5113439;28;20239;-78
2021/07/31 07:55:37;;;;;;;7.88;4.10;;;;;;;;;;5113782;28;20190;-77
2021/07/31 07:58:10;;;;;;;9.60;3.60;;;;;;;;;;5113730;28;20652;-77
2021/07/31 08:00:37;;;;;;;10.50;3.50;;;;;;;;;;5113868;28;20288;-77
2021/07/31 08:03:06;;;;;;;7.45;2.85;;;;;;;;;;5113413;27;20204;-77
2021/07/31 08:05:33;;;;;;;10.68;3.40;;;;;;;;;;5113259;27;20222;-77
2021/07/31 08:08:02;;;;;;;6.53;2.60;;;;;;;;;;5113205;28;20288;-77
2021/07/31 08:10:29;;;;;;;7.25;2.90;;;;;;;;;;5113699;28;20266;-77
2021/07/31 08:12:56;;;;;;;6.22;2.60;;;;;;;;;;5113116;28;20281;-77
2021/07/31 08:15:25;;;;;;;5.10;2.47;;;;;;;;;;5113243;28;20752;-78
2021/07/31 08:17:52;;;;;;;9.15;3.00;;;;;;;;;;5113141;28;20277;-77
2021/07/31 08:20:19;;;;;;;8.05;3.08;;;;;;;;;;5113137;28;20289;-77
2021/07/31 08:22:47;;;;;;;7.22;2.85;;;;;;;;;;5113212;28;20237;-77
2021/07/31 08:25:14;;;;;;;5.13;2.28;;;;;;;;;;5112777;28;20716;-77
2021/07/31 08:27:41;;;;;;;6.53;1.98;;;;;;;;;;5112687;28;20606;-77
2021/07/31 08:30:09;;;;;;;6.90;2.40;;;;;;;;;;5112908;28;20285;-77
2021/07/31 08:32:37;;;;;;;4.63;2.03;;;;;;;;;;5112992;28;20284;-77
2021/07/31 08:35:05;;;;;;;5.38;1.95;;;;;;;;;;5112646;28;20292;-77
2021/07/31 08:37:36;;;;;;;6.05;1.80;;;;;;;;;;5112655;28;20285;-77
2021/07/31 08:40:04;;;;;;;4.03;1.95;;;;;;;;;;5112528;28;20288;-78
2021/07/31 08:42:31;;;;;;;6.03;1.80;;;;;;;;;;5112970;28;20293;-75
2021/07/31 08:44:58;;;;;;;5.32;1.80;;;;;;;;;;5112629;28;20711;-77
2021/07/31 08:47:26;;;;;;;4.32;1.83;;;;;;;;;;5112529;28;20229;-78
2021/07/31 08:49:55;;;;;;;4.55;1.90;;;;;;;;;;5112434;28;20198;-78
2021/07/31 08:52:22;;;;;;;6.13;1.85;;;;;;;;;;5112247;27;20234;-78
2021/07/31 08:54:49;;;;;;;3.42;1.98;;;;;;;;;;5112379;28;20296;-77
2021/07/31 08:57:17;;;;;;;7.10;1.90;;;;;;;;;;5112178;28;20276;-77
2021/07/31 08:59:45;;;;;;;4.45;1.70;;;;;;;;;;5112428;28;20293;-77
2021/07/31 09:02:12;;;;;;;4.72;1.90;;;;;;;;;;5112086;28;20224;-77
2021/07/31 09:04:44;;;;;;;6.00;2.22;;;;;;;;;;5112050;28;20288;-77
2021/07/31 09:07:16;;;;;;;4.50;1.60;;;;;;;;;;5112222;28;20217;-77
2021/07/31 09:09:43;;;;;;;5.25;1.90;;;;;;;;;;5112434;28;20217;-77
2021/07/31 09:12:11;;;;;;;4.53;1.83;;;;;;;;;;5112245;28;20202;-76
2021/07/31 09:14:44;;;;;;;4.30;1.58;;;;;;;;;;5112484;28;20289;-77
2021/07/31 09:17:22;;;;;;;5.13;1.50;;;;;;;;;;5112132;28;20200;-77
2021/07/31 09:19:50;;;;;;;5.43;2.33;;;;;;;;;;5112227;28;20694;-77
2021/07/31 09:22:18;;;;;;;3.30;1.40;;;;;;;;;;5112616;28;20280;-77
2021/07/31 09:24:46;;;;;;;4.47;1.52;;;;;;;;;;5112486;28;20229;-76
2021/07/31 09:27:25;;;;;;;2.70;1.10;;;;;;;;;;5112036;28;20344;-77
2021/07/31 09:29:59;;;;;;;2.45;1.30;;;;;;;;;;5112040;28;20649;-77
2021/07/31 09:32:36;;;;;;;3.10;1.48;;;;;;;;;;5111962;28;20197;-77
2021/07/31 09:35:03;;;;;;;2.35;1.50;;;;;;;;;;5112205;28;20288;-77
2021/07/31 09:37:32;;;;;;;4.88;1.40;;;;;;;;;;5112053;28;20288;-77
2021/07/31 09:40:00;;;;;;;3.35;1.50;;;;;;;;;;5112349;28;20307;-77
2021/07/31 09:42:28;;;;;;;4.30;1.30;;;;;;;;;;5112279;28;20251;-77
2021/07/31 09:44:55;;;;;;;4.35;1.63;;;;;;;;;;5112253;28;20632;-77
2021/07/31 09:47:22;;;;;;;2.40;1.00;;;;;;;;;;5111777;28;20221;-77
2021/07/31 09:49:50;;;;;;;2.22;0.93;;;;;;;;;;5112067;28;20296;-77
2021/07/31 09:52:18;;;;;;;3.03;1.38;;;;;;;;;;5124754;27;20272;-77
2021/07/31 09:54:47;;;;;;;2.30;1.10;;;;;;;;;;5132542;27;20284;-77
2021/07/31 09:57:15;;;;;;;2.20;1.33;;;;;;;;;;5132491;27;20670;-77
2021/07/31 09:59:45;;;;;;;1.90;1.00;;;;;;;;;;5132812;27;20288;-77
2021/07/31 10:02:16;;;;;;;1.98;1.08;;;;;;;;;;5132125;27;20205;-77
2021/07/31 10:04:44;;;;;;;4.22;1.23;;;;;;;;;;5132381;27;20291;-77
2021/07/31 10:07:12;;;;;;;1.83;0.80;;;;;;;;;;5132369;27;20700;-77
2021/07/31 10:09:41;;;;;;;1.80;0.88;;;;;;;;;;5132351;27;20557;-77
2021/07/31 10:12:12;;;;;;;1.60;0.93;;;;;;;;;;5132429;27;20204;-77
2021/07/31 10:14:40;;;;;;;2.40;1.00;;;;;;;;;;5135873;27;20296;-77
2021/07/31 10:17:08;;;;;;;2.72;0.80;;;;;;;;;;5135816;27;20221;-77
2021/07/31 10:19:42;;;;;;;1.40;0.80;;;;;;;;;;5135974;27;20668;-77
2021/07/31 10:22:09;;;;;;;1.50;0.73;;;;;;;;;;5135808;27;20707;-78
2021/07/31 10:24:54;;;;;;;1.98;0.70;;;;;;;;;;5136497;27;20193;-77
2021/07/31 10:27:24;;;;;;;2.33;0.98;;;;;;;;;;5136128;27;20232;-77
2021/07/31 10:29:51;;;;;;;2.70;0.80;;;;;;;;;;5135733;27;20280;-77
2021/07/31 10:32:37;;;;;;;2.00;0.90;;;;;;;;;;5135729;27;20291;-77
2021/07/31 10:35:05;;;;;;;1.55;0.75;;;;;;;;;;5136186;27;20193;-77
2021/07/31 10:37:46;;;;;;;1.67;0.90;;;;;;;;;;5136036;27;20193;-78
2021/07/31 10:40:34;;;;;;;2.08;0.70;;;;;;;;;;5136017;27;20196;-77
2021/07/31 10:43:06;;;;;;;3.20;0.77;;;;;;;;;;5135726;27;20200;-77
2021/07/31 10:45:34;;;;;;;3.92;0.90;;;;;;;;;;5135429;27;20205;-78
2021/07/31 10:48:02;;;;;;;2.35;0.80;;;;;;;;;;5135637;27;20223;-77
2021/07/31 10:50:38;;;;;;;1.83;0.90;;;;;;;;;;5135635;27;20284;-78
2021/07/31 10:53:06;;;;;;;2.33;1.08;;;;;;;;;;5135329;27;20305;-78
2021/07/31 10:55:56;;;;;;;2.15;0.98;;;;;;;;;;5135579;27;20200;-78
2021/07/31 10:58:24;;;;;;;1.73;0.88;;;;;;;;;;5135015;27;20201;-78
2021/07/31 11:00:53;;;;;;;1.75;0.70;;;;;;;;;;5135186;27;20284;-77
2021/07/31 11:03:39;;;;;;;1.15;0.85;;;;;;;;;;5135475;27;20208;-77
2021/07/31 11:06:06;;;;;;;2.08;0.93;;;;;;;;;;5135257;27;20283;-78
2021/07/31 11:08:34;;;;;;;2.15;0.82;;;;;;;;;;5135143;27;20308;-78
2021/07/31 11:11:02;;;;;;;2.15;0.90;;;;;;;;;;5135329;27;20236;-77
2021/07/31 11:13:59;;;;;;;1.77;0.90;;;;;;;;;;5134555;27;21544;-77
2021/07/31 11:16:28;;;;;;;1.52;1.00;;;;;;;;;;5071185;28;20282;-77
2021/07/31 11:18:57;;;;;;;3.17;0.95;;;;;;;;;;5071461;28;20203;-78
2021/07/31 11:21:26;;;;;;;1.63;0.80;;;;;;;;;;5071309;28;20203;-78
2021/07/31 11:23:54;;;;;;;2.10;1.00;;;;;;;;;;5071110;28;20204;-77
2021/07/31 11:26:48;;;;;;;1.80;1.10;;;;;;;;;;5071226;28;20202;-77
2021/07/31 11:29:17;;;;;;;2.30;1.20;;;;;;;;;;5011347;28;20593;-77
2021/07/31 11:31:57;;;;;;;1.70;1.10;;;;;;;;;;5011518;28;20292;-78
2021/07/31 11:34:24;;;;;;;3.33;1.02;;;;;;;;;;5011761;28;20721;-78
2021/07/31 11:36:55;;;;;;;2.05;1.00;;;;;;;;;;5011220;28;20289;-77
2021/07/31 11:39:22;;;;;;;1.50;0.90;;;;;;;;;;5011361;28;20208;-77
2021/07/31 11:41:49;;;;;;;2.97;2.00;;;;;;;;;;5011165;28;20689;-77
2021/07/31 11:44:24;;;;;;;1.60;1.25;;;;;;;;;;5011066;28;20749;-77
2021/07/31 11:46:53;;;;;;;2.08;1.10;;;;;;;;;;5011057;28;20220;-77
2021/07/31 11:49:27;;;;;;;1.15;0.90;;;;;;;;;;5011141;28;20201;-77
2021/07/31 11:51:55;;;;;;;3.65;1.10;;;;;;;;;;5060870;28;20660;-77
2021/07/31 11:54:23;;;;;;;3.22;1.15;;;;;;;;;;5050840;28;20761;-77
2021/07/31 11:56:50;;;;;;;2.35;1.40;;;;;;;;;;5050361;28;20291;-77
2021/07/31 11:59:23;;;;;;;4.97;1.40;;;;;;;;;;5050539;28;20291;-77
2021/07/31 12:01:52;;;;;;;1.38;0.90;;;;;;;;;;5050759;28;20220;-77
2021/07/31 12:04:34;;;;;;;1.95;0.90;;;;;;;;;;5063643;28;20254;-77
2021/07/31 12:07:10;;;;;;;1.25;0.70;;;;;;;;;;5113126;28;20311;-77
2021/07/31 12:09:37;;;;;;;1.73;0.88;;;;;;;;;;5113532;28;20660;-77
2021/07/31 12:12:04;;;;;;;1.73;0.70;;;;;;;;;;5113143;28;20736;-77
2021/07/31 12:14:33;;;;;;;4.45;0.90;;;;;;;;;;5113364;28;20193;-78
2021/07/31 12:17:16;;;;;;;1.17;0.70;;;;;;;;;;5113710;28;20297;-78
2021/07/31 12:19:44;;;;;;;1.70;0.75;;;;;;;;;;5113272;28;20204;-78
2021/07/31 12:22:13;;;;;;;1.17;0.60;;;;;;;;;;5113534;28;20289;-77
2021/07/31 12:24:40;;;;;;;1.17;0.70;;;;;;;;;;5113298;28;20232;-78
2021/07/31 12:27:08;;;;;;;1.48;0.80;;;;;;;;;;5113134;28;20308;-77
2021/07/31 12:29:36;;;;;;;1.30;0.77;;;;;;;;;;5112971;28;20917;-77
2021/07/31 12:32:21;;;;;;;1.95;0.80;;;;;;;;;;5113191;28;20284;-77
2021/07/31 12:34:49;;;;;;;1.67;0.70;;;;;;;;;;5113007;28;20224;-77
2021/07/31 12:37:17;;;;;;;1.88;0.60;;;;;;;;;;5112473;28;20277;-77
2021/07/31 12:39:44;;;;;;;1.35;0.63;;;;;;;;;;5112608;27;20289;-77
2021/07/31 12:42:12;;;;;;;1.25;0.40;;;;;;;;;;5112964;28;20550;-77
2021/07/31 12:44:39;;;;;;;0.93;0.50;;;;;;;;;;5112880;28;20285;-77
2021/07/31 12:47:09;;;;;;;0.55;0.40;;;;;;;;;;5112615;28;20218;-77
2021/07/31 12:49:36;;;;;;;1.02;0.60;;;;;;;;;;5112139;28;20293;-77
2021/07/31 12:52:04;;;;;;;1.65;0.60;;;;;;;;;;5123569;27;20292;-77
2021/07/31 12:54:33;;;;;;;2.00;0.70;;;;;;;;;;5132800;27;20576;-78
2021/07/31 12:57:01;;;;;;;0.68;0.50;;;;;;;;;;5133437;27;20258;-77
2021/07/31 12:59:28;;;;;;;1.73;0.65;;;;;;;;;;5133028;27;20237;-77
2021/07/31 13:01:56;;;;;;;1.60;0.52;;;;;;;;;;5133125;27;20233;-77
2021/07/31 13:04:25;;;;;;;0.57;0.40;;;;;;;;;;5133487;27;20284;-78
2021/07/31 13:06:52;;;;;;;1.80;0.60;;;;;;;;;;5133097;27;20315;-78
2021/07/31 13:09:19;;;;;;;1.33;0.70;;;;;;;;;;5132724;27;20652;-78
2021/07/31 13:11:48;;;;;;;1.90;0.70;;;;;;;;;;5133105;27;20193;-78
2021/07/31 13:14:15;;;;;;;0.68;0.52;;;;;;;;;;5133086;27;20676;-78
2021/07/31 13:16:42;;;;;;;2.05;0.60;;;;;;;;;;5132937;27;20291;-78
2021/07/31 13:19:10;;;;;;;1.25;0.70;;;;;;;;;;5133003;27;20296;-78
2021/07/31 13:21:37;;;;;;;1.50;0.77;;;;;;;;;;5132867;27;20284;-78
2021/07/31 13:24:04;;;;;;;1.15;0.70;;;;;;;;;;5132638;27;20288;-78
2021/07/31 13:26:31;;;;;;;0.60;0.57;;;;;;;;;;5132932;27;20283;-78
2021/07/31 13:29:00;;;;;;;2.63;0.90;;;;;;;;;;5132992;27;20216;-78
2021/07/31 13:31:27;;;;;;;1.10;0.60;;;;;;;;;;5132705;27;20292;-77
2021/07/31 13:33:54;;;;;;;1.50;0.82;;;;;;;;;;5133044;27;20224;-77
2021/07/31 13:36:21;;;;;;;3.40;2.17;;;;;;;;;;5133229;27;20280;-77
2021/07/31 13:38:50;;;;;;;31.77;25.50;;;;;;;;;;5132290;27;20198;-77
2021/07/31 13:41:18;;;;;;;7.40;5.10;;;;;;;;;;5132655;27;20201;-77
2021/07/31 13:43:45;;;;;;;5.10;2.63;;;;;;;;;;5132542;27;20227;-77
2021/07/31 13:46:14;;;;;;;3.60;1.33;;;;;;;;;;5132736;27;20288;-77
2021/07/31 13:48:41;;;;;;;2.90;1.05;;;;;;;;;;5135883;27;20256;-77
2021/07/31 13:51:08;;;;;;;1.83;0.90;;;;;;;;;;5136503;27;20215;-77
2021/07/31 13:53:35;;;;;;;3.45;1.60;;;;;;;;;;5136168;27;20239;-77
2021/07/31 13:56:03;;;;;;;2.08;0.90;;;;;;;;;;5136695;27;20261;-77
2021/07/31 13:58:30;;;;;;;1.88;0.85;;;;;;;;;;5136968;27;20285;-77
2021/07/31 14:00:58;;;;;;;3.10;1.00;;;;;;;;;;5136344;27;20300;-77
2021/07/31 14:03:27;;;;;;;2.10;1.13;;;;;;;;;;5136379;27;20208;-76
2021/07/31 14:05:54;;;;;;;3.50;1.00;;;;;;;;;;5136541;27;20283;-77
2021/07/31 14:08:21;;;;;;;3.40;1.00;;;;;;;;;;5136158;27;20316;-76
2021/07/31 14:10:48;;;;;;;3.50;0.95;;;;;;;;;;5136134;27;20636;-77
2021/07/31 14:13:16;;;;;;;2.45;1.10;;;;;;;;;;5136285;27;20201;-77
2021/07/31 14:15:44;;;;;;;3.42;1.08;;;;;;;;;;5136385;27;20198;-77
2021/07/31 14:18:12;;;;;;;3.90;1.20;;;;;;;;;;5136336;27;20568;-76
2021/07/31 14:20:42;;;;;;;3.78;1.52;;;;;;;;;;5136030;27;20627;-76
2021/07/31 14:23:12;;;;;;;2.65;1.17;;;;;;;;;;5136012;27;20224;-76
2021/07/31 14:25:40;;;;;;;1.63;1.10;;;;;;;;;;5135927;27;20663;-76
2021/07/31 14:28:08;;;;;;;2.45;0.82;;;;;;;;;;5136031;27;20227;-77
2021/07/31 14:30:35;;;;;;;2.45;1.20;;;;;;;;;;5135996;27;20199;-76
2021/07/31 14:33:02;;;;;;;3.13;1.20;;;;;;;;;;5135999;27;20197;-76
2021/07/31 14:35:30;;;;;;;3.03;1.30;;;;;;;;;;5135644;27;20674;-76
2021/07/31 14:37:59;;;;;;;3.17;1.10;;;;;;;;;;5135258;27;20627;-76
2021/07/31 14:40:26;;;;;;;1.25;1.00;;;;;;;;;;5136007;27;20197;-76
2021/07/31 14:42:53;;;;;;;2.05;1.10;;;;;;;;;;5135519;27;20205;-76
2021/07/31 14:45:21;;;;;;;4.30;1.35;;;;;;;;;;5135736;27;20280;-77
2021/07/31 14:47:49;;;;;;;1.85;1.02;;;;;;;;;;5135623;27;20217;-77